Pays
Station

 

Conditions  météo  pour  Grafenwoehr  -  Allemagne    Allemagne

  
-6 °C
    
 
 

METAR pour Grafenwoehr :

ETIC 202256Z AUTO 00000KT 2400 R32/1100 BR SCT080 M06/M06 A3002 RMK AO2 VIS 0600V2400 SLP197 T10571062 410031057 FZRANO $

 

Voici le bulletin pour Grafenwoehr - Allemagne.
 
Le bulletin a été fait il y a 15 minutes, à 22:56 UTC .
Le vent était calme.
 
La température était de -6 °C, avec un point de rosée à -6 °C.
La pression atmosphérique était de 1017 hPa.
L'humidité relative était de 100.0%.
 
Il y avait 3 à 4/8ème de nébulosité à une hauteur de 2438 mètres.
 
La visibilité globale était de 2400 mètres.
 
La visibilité était de 1100 mètres sans tendance distinctive pour la piste 32.
Actuellement brume.

 
 
 

Pays :   A   B   C   D   E   F   G   H   I   J   K   L   M   N   O   P   Q   R   S   T   U   V   W   Y   Z

 

Partenaires :  Info Météo avec Met'info
Météo Marine avec MeteoMarine.net
Infos Site  |  Infos Légales  |  Crédits  |  Confidentialité
Contactez-nous  |  Ajouter aux favoris
© 2013-2018 METAR - Tous droits réservés